Latest Coastal Weather Observations for Coolangatta

IDQ60701

Issued at 6:42 am EST Saturday 23 May 2015 (issued every 10 minutes, with the page automatically refreshed every 10 minutes)

About coastal observations | Map of coastal stations | Coastal observations for QLD | Marine services | Other Formats
Station Details ID: 040717 Name: COOLANGATTA Lat: -28.17 Lon: 153.51 Height: 4.0 m
Data from the previous 72 hours. | See also: Recent months at Coolangatta
Date/Time
EST
Temp

°C
Wind Pressure Rain
since 9am
mm
Weather Cloud Vis
km
Sea
Height
m
Swell
Dir
 
Speed
knots
Gust
knots
hPa Trend Height
m
Period
s
Dir
23/06:30am 16.4 SSW 11 17 1021.1 - 0.0 - Cloudy 10 - - - -
23/06:00am 16.4 SSW 11 17 1020.8 - 0.0 - Partly cloudy 10 - - - -
23/05:30am 16.5 SSW 10 16 1020.2 - 0.0 - Partly cloudy 10 - - - -
23/05:00am 16.3 SW 9 14 1020.1 - 0.0 - Partly cloudy 10 - - - -
23/04:30am 16.3 SW 9 13 1019.7 - 0.0 - Partly cloudy 10 - - - -
23/04:00am 16.5 SSW 12 17 1019.6 - 0.0 - Partly cloudy 10 - - - -
23/03:30am 16.4 SSW 10 15 1019.5 - 0.0 - Partly cloudy 10 - - - -
23/03:00am 17.1 SSW 13 21 1019.3 - 0.0 - Cloudy 10 - - - -
23/02:30am 16.9 SSW 14 19 1019.1 - 0.0 - - 10 - - - -
23/02:00am 17.1 SSW 16 26 1019.0 - 0.0 - - 10 - - - -
23/01:30am 17.4 SSW 16 28 1018.7 - 0.0 - Partly cloudy 10 - - - -
23/01:00am 17.6 SSW 17 33 1018.6 - 0.0 - Partly cloudy 10 - - - -
23/12:30am 17.4 SSW 15 26 1018.3 - 0.0 - Partly cloudy 10 - - - -
23/12:29am 17.4 SSW 15 26 1018.4 - 0.0 - Partly cloudy 10 - - - -
23/12:00am 17.5 SSW 15 24 1018.3 - 0.0 - Mostly cloudy 10 - - - -
 
Date/Time
EST
Temp

°C
Wind Pressure Rain
since 9am
mm
Weather Cloud Vis
km
Sea
Height
m
Swell
Dir
 
Speed
knots
Gust
knots
hPa Trend Height
m
Period
s
Dir
22/11:44pm 17.6 SSW 15 25 1018.3 - 0.0 - Partly cloudy 10 - - - -
22/11:30pm 17.6 SSW 12 19 1018.5 - 0.0 - Partly cloudy 10 - - - -
22/11:00pm 17.9 SSW 13 21 1018.2 - 0.0 - Partly cloudy 10 - - - -
22/10:30pm 17.9 SSW 9 16 1018.3 - 0.0 - Partly cloudy 10 - - - -
22/10:00pm 17.7 SSW 9 17 1018.2 - 0.0 - Partly cloudy 10 - - - -
22/09:30pm 16.8 SSW 9 13 1017.8 - 0.0 - Partly cloudy 10 - - - -
22/09:00pm 14.0 W 3 5 1017.7 - 0.0 - Partly cloudy 10 - - - -
22/08:30pm 14.5 W 4 7 1017.5 - 0.0 - - 10 - - - -
22/08:00pm 14.7 WSW 4 8 1017.1 - 0.0 - - 10 - - - -
22/07:30pm 15.5 WSW 7 12 1016.8 - 0.0 - - 10 - - - -
22/07:00pm 15.5 W 3 7 1016.6 - 0.0 - - 10 - - - -
22/06:30pm 15.1 W 5 8 1016.0 - 0.0 - - 10 - - - -
22/06:00pm 15.1 WNW 6 8 1015.7 - 0.0 - - 10 - - - -
22/05:30pm 16.0 W 5 7 1015.3 - 0.0 - - 10 - - - -
22/05:00pm 16.8 W 4 7 1014.8 - 0.0 - - 10 - - - -
22/04:30pm 18.4 W 7 14 1014.5 - 0.0 - - 10 - - - -
22/04:00pm 19.3 SW 11 17 1014.4 - 0.0 - - 10 - - - -
22/03:30pm 19.8 SW 9 13 1014.1 - 0.0 - Partly cloudy 10 - - - -
22/03:00pm 20.5 SW 9 14 1014.0 - 0.0 - Mostly clear 10 - - - -
22/02:30pm 20.5 WSW 8 13 1013.8 - 0.0 - - 10 - - - -
22/02:00pm 19.0 S 6 10 1013.8 - 0.0 - Partly cloudy 10 - - - -
22/01:30pm 20.5 SSW 9 15 1013.8 - 0.0 - - 10 - - - -
22/01:00pm 20.6 WSW 7 12 1013.8 - 0.0 - - 10 - - - -
22/12:30pm 20.5 SW 7 11 1014.1 - 0.0 - - 10 - - - -
22/12:00pm 20.3 W 6 9 1014.5 - 0.0 - - 10 - - - -
22/11:30am 20.2 SW 8 11 1014.8 - 0.0 - - 10 - - - -
22/11:00am 19.8 WNW 7 11 1015.0 - 0.0 - - 10 - - - -
22/10:30am 19.8 WNW 9 13 1015.4 - 0.0 - - 10 - - - -
22/10:00am 19.3 WNW 10 14 1015.6 - 0.0 - - 10 - - - -
22/09:30am 19.0 WNW 8 13 1015.7 - 0.0 - - 10 - - - -
22/09:00am 18.3 NW 12 18 1015.4 - 9.6 - - 10 - - - -
22/08:30am 17.5 WNW 7 10 1015.2 - 9.6 - - 10 - - - -
22/08:00am 16.0 CALM 0 0 1015.2 - 9.6 - - 10 - - - -
22/07:30am 15.4 SSW 4 6 1015.2 - 9.6 - - 10 - - - -
22/07:25am 15.0 SW 5 7 1015.3 - 9.6 - - 10 - - - -
22/07:00am 13.5 CALM 0 0 1015.0 - 9.6 - - 0.5 - - - -
22/06:49am 14.0 CALM 0 0 1015.2 - 9.6 - - 5 - - - -
22/06:30am 14.0 E 1 3 1015.2 - 9.6 - - 10 - - - -
22/06:00am 14.6 WSW 3 4 1014.9 - 9.6 - Mostly clear 10 - - - -
22/05:30am 15.4 SW 4 5 1014.5 - 9.6 - Partly cloudy 10 - - - -
22/05:00am 15.5 SW 5 7 1014.7 - 9.6 - Partly cloudy 10 - - - -
22/04:30am 15.0 WNW 1 5 1014.7 - 9.6 - Partly cloudy 10 - - - -
22/04:00am 15.4 W 4 5 1014.4 - 9.6 - Partly cloudy 10 - - - -
22/03:30am 15.7 W 5 6 1014.6 - 9.6 - Partly cloudy 10 - - - -
22/03:00am 16.1 WSW 4 5 1014.7 - 9.6 - Cloudy 10 - - - -
22/02:30am 16.1 NW 3 4 1014.9 - 9.6 - Partly cloudy 10 - - - -
22/02:00am 16.3 W 3 4 1015.0 - 9.6 - Cloudy 10 - - - -
22/01:30am 16.4 CALM 0 0 1015.2 - 9.6 - Cloudy 10 - - - -
22/01:00am 16.5 W 3 4 1015.7 - 9.6 - Cloudy 10 - - - -
22/12:30am 16.4 NW 4 5 1016.2 - 9.6 - Partly cloudy 10 - - - -
22/12:00am 16.4 WNW 3 5 1016.3 - 9.4 - Cloudy 10 - - - -
 
Date/Time
EST
Temp

°C
Wind Pressure Rain
since 9am
mm
Weather Cloud Vis
km
Sea
Height
m
Swell
Dir
 
Speed
knots
Gust
knots
hPa Trend Height
m
Period
s
Dir
21/11:30pm 16.5 NW 4 6 1016.5 - 9.4 - Partly cloudy 10 - - - -
21/11:00pm 16.5 NW 5 7 1016.7 - 9.4 - Cloudy 10 - - - -
21/10:30pm 16.3 W 3 4 1016.9 - 9.2 - Partly cloudy 10 - - - -
21/10:00pm 16.4 WSW 6 7 1017.4 - 9.2 - Cloudy 10 - - - -
21/09:30pm 16.6 WSW 4 5 1017.1 - 9.0 - Cloudy 10 - - - -
21/09:02pm 16.5 NW 1 4 1017.2 - 8.8 - Partly cloudy 10 - - - -
21/09:00pm 16.5 NW 2 5 1017.2 - 8.8 Rain Cloudy 10 - - - -
21/08:31pm 16.5 WNW 3 4 1017.4 - 7.8 - Partly cloudy 6 - - - -
21/08:30pm 16.5 WNW 3 4 1017.5 - 7.6 - Partly cloudy 7 - - - -
21/08:25pm 16.6 WNW 4 4 1017.5 - 7.4 - Partly cloudy 9 - - - -
21/08:08pm 16.7 SW 1 4 1017.5 - 6.8 - Partly cloudy 6 - - - -
21/08:00pm 16.7 WSW 3 4 1017.6 - 6.4 - Partly cloudy 7 - - - -
21/07:30pm 16.6 WSW 4 6 1017.6 - 5.8 - Partly cloudy 10 - - - -
21/07:00pm 16.8 WSW 4 5 1017.5 - 5.8 - Partly cloudy 10 - - - -
21/06:30pm 16.7 SSW 2 4 1016.9 - 5.8 - Cloudy 10 - - - -
21/06:00pm 16.6 S 4 6 1016.9 - 5.6 Recent precip. Cloudy 10 - - - -
21/05:30pm 16.5 S 6 8 1016.9 - 5.6 - Partly cloudy 10 - - - -
21/05:20pm 16.5 SSE 7 9 1017.0 - 5.6 - Partly cloudy 10 - - - -
21/05:00pm 16.5 S 8 12 1017.1 - 5.0 - Partly cloudy 3 - - - -
21/04:41pm 17.2 S 11 16 1017.0 - 0.8 - Partly cloudy 6 - - - -
21/04:30pm 17.8 SSW 11 15 1016.9 - 0.2 - Partly cloudy 10 - - - -
21/04:00pm 19.1 S 10 15 1016.2 - 0.0 - Partly cloudy 10 - - - -
21/03:30pm 19.6 S 9 13 1016.2 - 0.0 - Partly cloudy 10 - - - -
21/03:00pm 20.4 S 8 11 1015.9 - 0.0 - Cloudy 10 - - - -
21/02:30pm 20.4 SSE 10 13 1015.9 - 0.0 - Partly cloudy 10 - - - -
21/02:18pm 21.1 SE 10 14 1015.8 - 0.0 - Partly cloudy 10 - - - -
21/02:02pm 21.4 SE 10 13 1015.6 - 0.0 - Partly cloudy 10 - - - -
21/02:00pm 21.6 SE 10 13 1015.5 - 0.0 - Partly cloudy 10 - - - -
21/01:30pm 22.5 SE 10 13 1015.7 - 0.0 - Partly cloudy 10 - - - -
21/01:00pm 22.7 SE 10 12 1015.9 - 0.0 - Partly cloudy 10 - - - -
21/12:30pm 23.6 E 5 6 1016.3 - 0.0 - Partly cloudy 10 - - - -
21/12:00pm 22.8 NNE 5 7 1016.9 - 0.0 - Mostly cloudy 10 - - - -
21/11:30am 23.3 NNE 7 9 1017.3 - 0.0 - - 10 - - - -
21/11:00am 22.6 NNE 7 9 1017.7 - 0.0 - - 10 - - - -
21/10:30am 22.5 NNE 9 11 1018.0 - 0.0 - Partly cloudy 10 - - - -
21/10:00am 23.3 NNW 6 8 1018.1 - 0.0 - Partly cloudy 10 - - - -
21/09:30am 22.6 NW 6 8 1018.4 - 0.0 - Cloudy 10 - - - -
21/09:00am 21.0 NW 4 5 1018.2 - 0.0 - Cloudy 10 - - - -
21/08:30am 20.1 NNW 4 6 1018.2 - 0.0 - Cloudy 10 - - - -
21/08:00am 19.7 NNW 5 7 1018.2 - 0.0 - Partly cloudy 10 - - - -
21/07:30am 19.8 NNW 6 8 1018.1 - 0.0 - Partly cloudy 10 - - - -
21/07:00am 19.7 NNW 8 10 1017.8 - 0.0 - - 10 - - - -
21/06:30am 19.7 N 7 9 1017.5 - 0.0 - Cloudy 9 - - - -
21/06:00am 19.4 N 5 7 1017.0 - 0.0 - Cloudy 7 - - - -
21/05:30am 19.4 NNW 6 8 1017.0 - 0.0 - Cloudy 10 - - - -
21/05:00am 19.1 N 5 6 1017.0 - 0.0 - Cloudy 10 - - - -
21/04:30am 19.3 NNW 6 7 1017.0 - 0.0 - - 10 - - - -
21/04:00am 19.5 NNW 6 9 1017.2 - 0.0 - - 10 - - - -
21/03:45am 19.7 NNW 7 9 1017.2 - 0.0 - Partly cloudy 10 - - - -
21/03:30am 19.6 NW 7 10 1017.2 - 0.0 - Partly cloudy 10 - - - -
21/03:13am 19.8 NW 7 11 1017.1 - 0.0 - Partly cloudy 10 - - - -
21/03:00am 19.5 NW 7 11 1017.2 - 0.0 - Mostly clear 10 - - - -
21/02:30am 19.8 NNW 7 10 1017.3 - 0.0 - - 10 - - - -
21/02:00am 19.4 NW 5 9 1017.5 - 0.0 - - 10 - - - -
21/01:30am 19.8 NNW 7 10 1017.8 - 0.0 - - 10 - - - -
21/01:00am 19.0 NNW 5 5 1018.0 - 0.0 - - 10 - - - -
21/12:30am 18.9 N 6 7 1018.0 - 0.0 - - 10 - - - -
21/12:00am 19.3 N 5 6 1018.3 - 0.0 - Mostly cloudy 10 - - - -
 
Date/Time
EST
Temp

°C
Wind Pressure Rain
since 9am
mm
Weather Cloud Vis
km
Sea
Height
m
Swell
Dir
 
Speed
knots
Gust
knots
hPa Trend Height
m
Period
s
Dir
20/11:30pm 20.2 NNW 7 9 1018.4 - 0.0 - - 10 - - - -
20/11:00pm 20.0 NNW 7 8 1018.2 - 0.0 - - 10 - - - -
20/10:30pm 20.1 NNW 3 6 1018.7 - 0.0 - - 10 - - - -
20/10:00pm 20.2 N 8 10 1018.6 - 0.0 - - 9 - - - -
20/09:30pm 20.3 NNW 7 8 1018.6 - 0.0 - - 10 - - - -
20/09:00pm 19.8 N 6 7 1018.8 - 0.0 - Partly cloudy 10 - - - -
20/08:30pm 20.3 N 5 6 1018.6 - 0.0 - - 10 - - - -
20/08:00pm 20.9 NW 6 8 1018.1 - 0.0 - - 10 - - - -
20/07:30pm 21.1 NNW 5 7 1018.2 - 0.0 - - 10 - - - -
20/07:00pm 21.5 NNW 7 10 1018.0 - 0.0 - - 10 - - - -
20/06:30pm 21.7 NNW 8 10 1017.8 - 0.0 - - 10 - - - -
20/06:00pm 21.9 NNW 8 11 1017.7 - 0.0 - Cloudy 10 - - - -
20/05:30pm 22.0 N 10 13 1017.4 - 0.0 - - 10 - - - -
20/05:00pm 22.1 N 10 13 1017.5 - 0.0 - - 10 - - - -
20/04:30pm 22.5 N 10 13 1017.3 - 0.0 - - 10 - - - -
20/04:00pm 23.4 NNE 10 13 1017.1 - 0.0 - - 10 - - - -
20/03:30pm 23.6 N 9 11 1017.0 - 0.0 - - 10 - - - -
20/03:00pm 23.4 N 10 12 1017.0 - 0.0 - Mostly clear 10 - - - -
20/02:30pm 24.0 N 10 13 1017.0 - 0.0 - - 10 - - - -
20/02:00pm 23.8 N 11 13 1017.3 - 0.0 - - 10 - - - -
20/01:30pm 24.6 N 10 14 1017.5 - 0.0 - - 10 - - - -
20/01:00pm 23.2 N 11 15 1017.6 - 0.0 - - 10 - - - -
20/12:30pm 23.8 N 10 13 1017.8 - 0.0 - - 10 - - - -
20/12:00pm 25.0 NNW 8 11 1018.3 - 0.0 - - 10 - - - -
20/11:30am 24.8 NNW 9 12 1018.6 - 0.0 - - 10 - - - -
20/11:00am 24.0 NW 10 13 1019.3 - 0.0 - - 10 - - - -
20/10:30am 23.9 NW 9 13 1019.7 - 0.0 - - 10 - - - -
20/10:00am 23.6 NW 8 12 1020.1 - 0.0 - - 10 - - - -
20/09:30am 22.8 NW 7 9 1020.2 - 0.0 - - 10 - - - -
20/09:00am 21.7 NW 7 10 1020.1 - 0.2 - - 10 - - - -
20/08:30am 20.5 NW 6 9 1020.2 - 0.2 - - 10 - - - -
20/08:00am 20.0 NNW 6 8 1020.0 - 0.2 - - 10 - - - -
20/07:30am 17.9 CALM 0 4 1019.7 - 0.2 - - 10 - - - -
20/07:00am 16.2 CALM 0 0 1019.6 - 0.2 - Partly cloudy 10 - - - -
20/06:58am 16.1 CALM 0 0 1019.6 - 0.2 - Partly cloudy 10 - - - -

Other Formats:

Comma delimited format used in spreadsheet applications
http://www.bom.gov.au/fwo/IDQ60701/IDQ60701.94592.axf

JavaScript Object Notation format (JSON) in row-major order
http://www.bom.gov.au/fwo/IDQ60701/IDQ60701.94592.json